2017/10/17 09:00 VVNB 170900Z 01008KT 330V030 9999 FEW027 BKN040 23/16 Q1013 NOSIG
2017/10/17 09:00 VVDN 170900Z 30007KT 9999 FEW013 BKN060 28/21 Q1008 NOSIG
2017/10/17 09:00 VVTS 170900Z 04004KT 7000 -RA FEW015 BKN040 26/26 Q1006 NOSIG
2017/10/17 09:00 VVPB 170900Z 29009KT 9999 SCT017 BKN050 23/22 Q1010 NOSIG

Powered by MinhViet JSC.